createdAt,value
2018-07-24T00:00:03.707Z,0
2018-07-24T00:01:03.949Z,0
2018-07-24T00:02:03.693Z,0
2018-07-24T00:03:03.437Z,0
2018-07-24T00:04:03.966Z,0
2018-07-24T00:05:03.683Z,0
2018-07-24T00:06:03.680Z,0
2018-07-24T00:07:03.957Z,0
2018-07-24T00:08:03.669Z,0
2018-07-24T00:09:03.672Z,0
2018-07-24T00:10:03.675Z,0
2018-07-24T00:11:04.348Z,0
2018-07-24T00:12:03.685Z,0
2018-07-24T00:13:03.655Z,0
2018-07-24T00:14:03.906Z,0
2018-07-24T00:15:03.908Z,0
2018-07-24T00:16:03.936Z,0
2018-07-24T00:17:03.905Z,0
2018-07-24T00:18:03.643Z,0
2018-07-24T00:19:03.898Z,0
2018-07-24T00:20:03.652Z,0
2018-07-24T00:21:03.882Z,0
2018-07-24T00:22:03.631Z,0
2018-07-24T00:23:03.876Z,0
2018-07-24T00:24:03.888Z,0
2018-07-24T00:25:03.617Z,0
2018-07-24T00:26:03.626Z,0
2018-07-24T00:27:03.608Z,0
2018-07-24T00:28:03.882Z,0
2018-07-24T00:29:03.878Z,0
2018-07-24T00:30:03.858Z,0
2018-07-24T00:31:03.874Z,0
2018-07-24T00:32:03.961Z,0
2018-07-24T00:33:03.843Z,0
2018-07-24T00:34:03.334Z,0
2018-07-24T00:35:03.585Z,0
2018-07-24T00:36:03.839Z,0
2018-07-24T00:37:03.828Z,0
2018-07-24T00:38:03.830Z,0
2018-07-24T00:39:03.824Z,0
2018-07-24T00:40:03.836Z,0
2018-07-24T00:41:03.833Z,0
2018-07-24T00:42:03.568Z,0
2018-07-24T00:43:03.813Z,0
2018-07-24T00:44:03.559Z,0
2018-07-24T00:45:03.804Z,0
2018-07-24T00:46:03.798Z,0
2018-07-24T00:47:03.546Z,0
2018-07-24T00:48:03.793Z,0
2018-07-24T00:49:03.812Z,0
2018-07-24T00:50:03.790Z,0
2018-07-24T00:51:03.548Z,0
2018-07-24T00:52:03.774Z,0
2018-07-24T00:53:03.780Z,0
2018-07-24T00:54:03.565Z,0
2018-07-24T00:55:03.772Z,0
2018-07-24T00:56:03.768Z,0
2018-07-24T00:57:03.765Z,0
2018-07-24T00:58:03.762Z,0
2018-07-24T00:59:03.761Z,0
2018-07-24T01:00:03.755Z,0
2018-07-24T01:01:03.552Z,0
2018-07-24T01:02:03.501Z,0
2018-07-24T01:03:03.749Z,0
2018-07-24T01:04:03.752Z,0
2018-07-24T01:05:03.485Z,0
2018-07-24T01:06:03.757Z,0
2018-07-24T01:07:03.485Z,0
2018-07-24T01:08:03.725Z,0
2018-07-24T01:09:03.733Z,0
2018-07-24T01:10:03.734Z,0
2018-07-24T01:11:03.725Z,0
2018-07-24T01:12:03.461Z,0
2018-07-24T01:13:03.713Z,0
2018-07-24T01:14:03.704Z,0
2018-07-24T01:15:03.451Z,0
2018-07-24T01:16:03.699Z,0
2018-07-24T01:17:03.704Z,0
2018-07-24T01:18:03.688Z,0
2018-07-24T01:19:03.710Z,0
2018-07-24T01:20:03.437Z,0
2018-07-24T01:21:03.678Z,0
2018-07-24T01:22:03.682Z,0
2018-07-24T01:23:03.677Z,0
2018-07-24T01:24:03.682Z,0
2018-07-24T01:25:03.414Z,0
2018-07-24T01:26:03.409Z,0
2018-07-24T01:27:03.659Z,0
2018-07-24T01:28:03.662Z,0
2018-07-24T01:29:03.400Z,0
2018-07-24T01:30:03.405Z,0
2018-07-24T01:31:03.654Z,0
2018-07-24T01:32:03.389Z,0
2018-07-24T01:33:03.639Z,0
2018-07-24T01:34:03.636Z,0
2018-07-24T01:35:03.375Z,0
2018-07-24T01:36:03.121Z,0
2018-07-24T01:37:03.637Z,0
2018-07-24T01:38:03.642Z,0
2018-07-24T01:39:03.631Z,0
2018-07-24T01:40:03.163Z,0
2018-07-24T01:41:03.610Z,0
2018-07-24T01:42:03.605Z,0
2018-07-24T01:43:03.609Z,0
2018-07-24T01:44:03.620Z,0
2018-07-24T01:45:03.591Z,0
2018-07-24T01:46:03.604Z,0
2018-07-24T01:47:03.586Z,0
2018-07-24T01:48:03.343Z,0
2018-07-24T01:49:03.329Z,0
2018-07-24T01:50:03.324Z,0
2018-07-24T01:51:03.580Z,0
2018-07-24T01:52:03.577Z,0
2018-07-24T01:53:03.317Z,0
2018-07-24T01:54:03.307Z,0
2018-07-24T01:55:03.309Z,0
2018-07-24T01:56:03.569Z,0
2018-07-24T01:57:03.550Z,0
2018-07-24T01:58:03.542Z,0
2018-07-24T01:59:03.293Z,0
2018-07-24T02:00:03.541Z,0
2018-07-24T02:01:03.028Z,0
2018-07-24T02:02:03.535Z,0
2018-07-24T02:03:03.531Z,0
2018-07-24T02:04:03.271Z,0
2018-07-24T02:05:03.529Z,0
2018-07-24T02:06:03.518Z,0
2018-07-24T02:07:03.259Z,0
2018-07-24T02:08:03.506Z,0
2018-07-24T02:09:03.252Z,0
2018-07-24T02:10:03.518Z,0
2018-07-24T02:11:03.497Z,0
2018-07-24T02:12:03.239Z,0
2018-07-24T02:13:03.233Z,0
2018-07-24T02:14:03.229Z,0
2018-07-24T02:15:03.232Z,0
2018-07-24T02:16:03.483Z,0
2018-07-24T02:17:03.492Z,0
2018-07-24T02:18:03.483Z,0
2018-07-24T02:19:03.477Z,0
2018-07-24T02:20:03.467Z,0
2018-07-24T02:21:03.209Z,0
2018-07-24T02:22:03.203Z,0
2018-07-24T02:23:03.201Z,0
2018-07-24T02:24:03.445Z,0
2018-07-24T02:25:03.454Z,4
2018-07-24T02:26:03.442Z,4
2018-07-24T02:27:03.184Z,4
2018-07-24T02:28:03.436Z,0
2018-07-24T02:29:03.425Z,0
2018-07-24T02:30:03.422Z,4
2018-07-24T02:31:03.422Z,4
2018-07-24T02:32:03.886Z,4
2018-07-24T02:33:03.416Z,4
2018-07-24T02:34:03.411Z,4
2018-07-24T02:35:03.414Z,4
2018-07-24T02:36:03.410Z,8
2018-07-24T02:37:03.407Z,8
2018-07-24T02:38:03.431Z,12
2018-07-24T02:39:03.398Z,8
2018-07-24T02:40:03.402Z,12
2018-07-24T02:41:03.129Z,16
2018-07-24T02:42:03.144Z,16
2018-07-24T02:43:03.126Z,16
2018-07-24T02:44:03.367Z,16
2018-07-24T02:45:03.386Z,20
2018-07-24T02:46:03.358Z,24
2018-07-24T02:47:03.355Z,28
2018-07-24T02:48:03.368Z,32
2018-07-24T02:49:03.354Z,36
2018-07-24T02:50:03.364Z,44
2018-07-24T02:51:03.352Z,48
2018-07-24T02:52:03.085Z,52
2018-07-24T02:53:03.091Z,56
2018-07-24T02:54:03.338Z,68
2018-07-24T02:55:03.091Z,76
2018-07-24T02:56:03.321Z,80
2018-07-24T02:57:03.329Z,92
2018-07-24T02:58:03.323Z,104
2018-07-24T02:59:03.322Z,112
2018-07-24T03:00:03.059Z,124
2018-07-24T03:01:03.311Z,140
2018-07-24T03:02:03.306Z,156
2018-07-24T03:03:03.049Z,168
2018-07-24T03:04:03.302Z,184
2018-07-24T03:05:03.288Z,204
2018-07-24T03:06:03.291Z,224
2018-07-24T03:07:03.032Z,244
2018-07-24T03:08:03.271Z,260
2018-07-24T03:09:03.034Z,288
2018-07-24T03:10:02.760Z,308
2018-07-24T03:11:03.262Z,332
2018-07-24T03:12:03.019Z,360
2018-07-24T03:13:03.254Z,388
2018-07-24T03:14:02.743Z,416
2018-07-24T03:15:02.992Z,444
2018-07-24T03:16:03.314Z,480
2018-07-24T03:17:03.241Z,512
2018-07-24T03:18:03.231Z,548
2018-07-24T03:19:03.231Z,584
2018-07-24T03:20:02.971Z,624
2018-07-24T03:21:03.219Z,664
2018-07-24T03:22:02.968Z,700
2018-07-24T03:23:03.218Z,748
2018-07-24T03:24:02.974Z,788
2018-07-24T03:25:02.711Z,836
2018-07-24T03:26:02.956Z,880
2018-07-24T03:27:03.202Z,928
2018-07-24T03:28:02.942Z,980
2018-07-24T03:29:03.181Z,1028
2018-07-24T03:30:02.928Z,1080
2018-07-24T03:31:03.185Z,1128
2018-07-24T03:32:03.190Z,1180
2018-07-24T03:33:03.169Z,1232
2018-07-24T03:34:02.921Z,1288
2018-07-24T03:35:02.914Z,1340
2018-07-24T03:36:03.162Z,1396
2018-07-24T03:37:03.157Z,1452
2018-07-24T03:38:03.149Z,1508
2018-07-24T03:39:02.892Z,1564
2018-07-24T03:40:02.895Z,1620
2018-07-24T03:41:03.134Z,1680
2018-07-24T03:42:03.134Z,1736
2018-07-24T03:43:03.132Z,1800
2018-07-24T03:44:03.126Z,1868
2018-07-24T03:45:02.994Z,1936
2018-07-24T03:46:02.866Z,2016
2018-07-24T03:47:03.109Z,2116
2018-07-24T03:48:03.116Z,2256
2018-07-24T03:49:03.102Z,2356
2018-07-24T03:50:03.098Z,2588
2018-07-24T03:51:03.135Z,2880
2018-07-24T03:52:03.097Z,3128
2018-07-24T03:53:03.093Z,3440
2018-07-24T03:54:03.086Z,3584
2018-07-24T03:55:03.090Z,3696
2018-07-24T03:56:02.829Z,3852
2018-07-24T03:57:03.081Z,3996
2018-07-24T03:58:03.409Z,4152
2018-07-24T03:59:03.066Z,4284
2018-07-24T04:00:03.063Z,4448
2018-07-24T04:01:02.559Z,4588
2018-07-24T04:02:03.062Z,4756
2018-07-24T04:03:02.808Z,4860
2018-07-24T04:04:02.565Z,4952
2018-07-24T04:05:03.053Z,5076
2018-07-24T04:06:03.048Z,5272
2018-07-24T04:07:03.044Z,5384
2018-07-24T04:08:03.046Z,5556
2018-07-24T04:09:02.796Z,5576
2018-07-24T04:10:03.038Z,5712
2018-07-24T04:11:03.044Z,5868
2018-07-24T04:12:03.035Z,6016
2018-07-24T04:13:02.785Z,6304
2018-07-24T04:14:03.062Z,5536
2018-07-24T04:15:02.779Z,5724
2018-07-24T04:16:03.036Z,5900
2018-07-24T04:17:03.040Z,5924
2018-07-24T04:18:02.784Z,5956
2018-07-24T04:19:03.040Z,5904
2018-07-24T04:20:02.782Z,6004
2018-07-24T04:21:02.784Z,6084
2018-07-24T04:22:02.797Z,6296
2018-07-24T04:23:03.040Z,6764
2018-07-24T04:24:03.041Z,8688
2018-07-24T04:25:03.045Z,8460
2018-07-24T04:26:03.039Z,9024
2018-07-24T04:27:02.786Z,9212
2018-07-24T04:28:02.789Z,9456
2018-07-24T04:29:03.044Z,9416
2018-07-24T04:30:03.064Z,9088
2018-07-24T04:31:03.218Z,9352
2018-07-24T04:32:03.055Z,9884
2018-07-24T04:33:02.556Z,10388
2018-07-24T04:34:03.070Z,11056
2018-07-24T04:35:02.820Z,11260
2018-07-24T04:36:02.825Z,12100
2018-07-24T04:37:02.826Z,11768
2018-07-24T04:38:03.080Z,11440
2018-07-24T04:39:03.096Z,12364
2018-07-24T04:40:03.157Z,12116
2018-07-24T04:41:03.125Z,12468
2018-07-24T04:42:02.856Z,13196
2018-07-24T04:43:03.113Z,13344
2018-07-24T04:44:03.116Z,14272
2018-07-24T04:45:03.128Z,14784
2018-07-24T04:46:03.126Z,14432
2018-07-24T04:47:03.132Z,15072
2018-07-24T04:48:02.896Z,15424
2018-07-24T04:49:02.899Z,14592
2018-07-24T04:50:03.166Z,14624
2018-07-24T04:51:03.171Z,14976
2018-07-24T04:52:03.179Z,15232
2018-07-24T04:53:03.195Z,16352
2018-07-24T04:54:03.185Z,17024
2018-07-24T04:55:03.204Z,17472
2018-07-24T04:56:03.201Z,17920
2018-07-24T04:57:03.215Z,19040
2018-07-24T04:58:02.979Z,19584
2018-07-24T04:59:03.246Z,19072
2018-07-24T05:00:03.235Z,20096
2018-07-24T05:01:03.246Z,20352
2018-07-24T05:02:03.263Z,19456
2018-07-24T05:03:03.262Z,19968
2018-07-24T05:04:03.270Z,19808
2018-07-24T05:05:03.293Z,19584
2018-07-24T05:06:03.298Z,20768
2018-07-24T05:07:03.071Z,20256
2018-07-24T05:08:03.326Z,20832
2018-07-24T05:09:03.318Z,22336
2018-07-24T05:10:03.352Z,21920
2018-07-24T05:11:03.341Z,23136
2018-07-24T05:12:03.353Z,24800
2018-07-24T05:13:03.360Z,23616
2018-07-24T05:14:03.379Z,22848
2018-07-24T05:15:03.382Z,23648
2018-07-24T05:16:03.393Z,24256
2018-07-24T05:17:03.149Z,24608
2018-07-24T05:18:03.163Z,24544
2018-07-24T05:19:03.429Z,24352
2018-07-24T05:20:03.441Z,23424
2018-07-24T05:21:03.442Z,22048
2018-07-24T05:22:03.206Z,24000
2018-07-24T05:23:03.227Z,27936
2018-07-24T05:24:03.476Z,26368
2018-07-24T05:25:03.237Z,23296
2018-07-24T05:26:03.399Z,25600
2018-07-24T05:27:03.534Z,28128
2018-07-24T05:28:03.586Z,26848
2018-07-24T05:29:03.539Z,27840
2018-07-24T05:30:03.550Z,30240
2018-07-24T05:31:03.310Z,29504
2018-07-24T05:32:03.574Z,27520
2018-07-24T05:33:03.131Z,28704
2018-07-24T05:34:03.341Z,32352
2018-07-24T05:35:03.607Z,32544
2018-07-24T05:36:03.362Z,29728
2018-07-24T05:37:03.628Z,29600
2018-07-24T05:38:03.644Z,33440
2018-07-24T05:39:03.406Z,34784
2018-07-24T05:40:03.675Z,32448
2018-07-24T05:41:03.686Z,31776
2018-07-24T05:42:03.187Z,32512
2018-07-24T05:43:03.706Z,32672
2018-07-24T05:44:03.472Z,32992
2018-07-24T05:45:03.736Z,35904
2018-07-24T05:46:03.491Z,37856
2018-07-24T05:47:03.761Z,34688
2018-07-24T05:48:03.770Z,31680
2018-07-24T05:49:03.783Z,32832
2018-07-24T05:50:03.941Z,35872
2018-07-24T05:51:03.819Z,37952
2018-07-24T05:52:03.833Z,37760
2018-07-24T05:53:03.840Z,34880
2018-07-24T05:54:03.610Z,33312
2018-07-24T05:55:03.979Z,36736
2018-07-24T05:56:03.381Z,41216
2018-07-24T05:57:03.901Z,39264
2018-07-24T05:58:03.919Z,33024
2018-07-24T05:59:03.925Z,31328
2018-07-24T06:00:03.954Z,36544
2018-07-24T06:01:03.959Z,40704
2018-07-24T06:02:03.683Z,40800
2018-07-24T06:03:03.991Z,38304
2018-07-24T06:04:04.011Z,36640
2018-07-24T06:06:04.032Z,44576
2018-07-24T06:07:04.050Z,45056
2018-07-24T06:08:03.814Z,41056
2018-07-24T06:09:04.085Z,40064
2018-07-24T06:10:04.104Z,44128
2018-07-24T06:11:04.118Z,47648
2018-07-24T06:12:03.626Z,46176
2018-07-24T06:13:04.202Z,43296
2018-07-24T06:14:03.908Z,44128
2018-07-24T06:15:03.966Z,44192
2018-07-24T06:16:03.945Z,41984
2018-07-24T06:17:04.450Z,41792
2018-07-24T06:18:04.116Z,45824
2018-07-24T06:19:04.245Z,45152
2018-07-24T06:20:04.019Z,36448
2018-07-24T06:21:04.308Z,32000
2018-07-24T06:22:04.611Z,36128
2018-07-24T06:23:04.331Z,40896
2018-07-24T06:24:04.351Z,39104
2018-07-24T06:25:04.350Z,35808
2018-07-24T06:26:04.118Z,36352
2018-07-24T06:27:04.132Z,38016
2018-07-24T06:28:04.164Z,35968
2018-07-24T06:29:04.450Z,33952
2018-07-24T06:30:04.439Z,33056
2018-07-24T06:31:04.468Z,31744
2018-07-24T06:32:04.477Z,31200
2018-07-24T06:33:04.501Z,30688
2018-07-24T06:34:04.518Z,28960
2018-07-24T06:35:04.698Z,24320
2018-07-24T06:36:04.500Z,19936
2018-07-24T06:37:04.311Z,20224
2018-07-24T06:38:04.335Z,28160
2018-07-24T06:39:04.611Z,42496
2018-07-24T06:40:04.390Z,54112
2018-07-24T06:41:04.708Z,59136
2018-07-24T06:42:04.418Z,53728
2018-07-24T06:43:04.428Z,45120
2018-07-24T06:44:04.713Z,43264
2018-07-24T06:45:04.734Z,47616
2018-07-24T06:46:04.232Z,56288
2018-07-24T06:47:04.760Z,64736
2018-07-24T06:48:04.527Z,70624
2018-07-24T06:49:04.800Z,74016
2018-07-24T06:50:04.567Z,73696
2018-07-24T06:51:04.634Z,55360
2018-07-24T06:52:05.215Z,52192
2018-07-24T06:53:04.876Z,49632
2018-07-24T06:54:04.644Z,49440
2018-07-24T06:55:04.668Z,51808
2018-07-24T06:56:04.434Z,57760
2018-07-24T06:57:04.468Z,66016
2018-07-24T06:58:04.724Z,70720
2018-07-24T06:59:04.992Z,71680
2018-07-24T07:00:04.776Z,66656
2018-07-24T07:01:05.035Z,59488
2018-07-24T07:02:05.149Z,54144
2018-07-24T07:03:05.104Z,51648
2018-07-24T07:04:04.844Z,49280
2018-07-24T07:05:04.935Z,48960
2018-07-24T07:06:04.887Z,48064
2018-07-24T07:07:05.149Z,47040
2018-07-24T07:08:05.163Z,46944
2018-07-24T07:09:05.178Z,47936
2018-07-24T07:10:05.212Z,49216
2018-07-24T07:11:04.965Z,51232
2018-07-24T07:12:04.731Z,54272
2018-07-24T07:13:04.837Z,55488
2018-07-24T07:14:04.790Z,55232
2018-07-24T07:15:05.052Z,55552
2018-07-24T07:16:05.310Z,55232
2018-07-24T07:17:05.327Z,54144
2018-07-24T07:18:05.358Z,53120
2018-07-24T07:19:04.859Z,50720
2018-07-24T07:20:05.377Z,49664
2018-07-24T07:21:05.392Z,49664
2018-07-24T07:22:04.906Z,50176
2018-07-24T07:23:05.429Z,48960
2018-07-24T07:24:05.194Z,46432
2018-07-24T07:25:05.220Z,48064
2018-07-24T07:26:05.562Z,49408
2018-07-24T07:27:05.497Z,50176
2018-07-24T07:28:05.515Z,48672
2018-07-24T07:29:05.439Z,47232
2018-07-24T07:30:05.545Z,42080
2018-07-24T07:31:05.565Z,33600
2018-07-24T07:32:05.581Z,28608
2018-07-24T07:33:05.597Z,24384
2018-07-24T07:34:05.636Z,19936
2018-07-24T07:35:05.629Z,18336
2018-07-24T07:36:05.647Z,19616
2018-07-24T07:37:05.666Z,22176
2018-07-24T07:38:05.686Z,23968
2018-07-24T07:39:05.706Z,23616
2018-07-24T07:40:05.467Z,22912
2018-07-24T07:41:05.738Z,22944
2018-07-24T07:42:05.242Z,23776
2018-07-24T07:43:05.260Z,24064
2018-07-24T07:44:05.410Z,23360
2018-07-24T07:45:05.810Z,22368
2018-07-24T07:46:05.563Z,22688
2018-07-24T07:47:05.586Z,25184
2018-07-24T07:48:05.851Z,28032
2018-07-24T07:49:05.872Z,28224
2018-07-24T07:50:05.630Z,27744
2018-07-24T07:51:05.900Z,28064
2018-07-24T07:52:05.671Z,29664
2018-07-24T07:53:05.956Z,32928
2018-07-24T07:54:05.949Z,37120
2018-07-24T07:55:05.456Z,41472
2018-07-24T07:56:05.981Z,44736
2018-07-24T07:57:05.740Z,44480
2018-07-24T07:58:06.030Z,40352
2018-07-24T07:59:05.779Z,38240
2018-07-24T08:00:05.797Z,42048
2018-07-24T08:01:06.332Z,47040
2018-07-24T08:02:06.086Z,49920
2018-07-24T08:03:06.106Z,51424
2018-07-24T08:04:06.224Z,54080
2018-07-24T08:05:06.134Z,57440
2018-07-24T08:06:05.951Z,59808
2018-07-24T08:07:06.168Z,60544
2018-07-24T08:08:05.948Z,61248
2018-07-24T08:09:06.225Z,65440
2018-07-24T08:10:05.704Z,69312
2018-07-24T08:11:06.231Z,67104
2018-07-24T08:12:05.992Z,58240
2018-07-24T08:13:06.009Z,55072
2018-07-24T08:14:06.481Z,60480
2018-07-24T08:15:06.300Z,67584
2018-07-24T08:16:06.307Z,72032
2018-07-24T08:17:06.070Z,75584
2018-07-24T08:18:06.099Z,78400
2018-07-24T08:19:06.351Z,81856
2018-07-24T08:20:06.115Z,83104
2018-07-24T08:21:06.142Z,77152
2018-07-24T08:22:06.178Z,71328
2018-07-24T08:23:06.464Z,70880
2018-07-24T08:24:05.932Z,78304
2018-07-24T08:25:06.449Z,86464
2018-07-24T08:26:05.954Z,88288
2018-07-24T08:27:06.224Z,83296
2018-07-24T08:28:06.330Z,78336
2018-07-24T08:29:06.509Z,77440
2018-07-24T08:30:06.280Z,78336
2018-07-24T08:31:06.292Z,76736
2018-07-24T08:32:06.550Z,76064
2018-07-24T08:33:06.077Z,81888
2018-07-24T08:34:06.082Z,86272
2018-07-24T08:35:06.344Z,81120
2018-07-24T08:36:06.363Z,74912
2018-07-24T08:37:06.381Z,74208
2018-07-24T08:38:06.156Z,74464
2018-07-24T08:39:06.695Z,75008
2018-07-24T08:40:06.676Z,77696
2018-07-24T08:41:06.733Z,77536
2018-07-24T08:42:06.452Z,73056
2018-07-24T08:43:06.467Z,75552
2018-07-24T08:44:06.484Z,84160
2018-07-24T08:45:06.516Z,91168
2018-07-24T08:46:06.777Z,91072
2018-07-24T08:47:06.558Z,84320
2018-07-24T08:48:06.817Z,78816
2018-07-24T08:49:06.860Z,77760
2018-07-24T08:50:06.580Z,79424
2018-07-24T08:51:06.616Z,71456
2018-07-24T08:52:06.866Z,61984
2018-07-24T08:53:07.711Z,57568
2018-07-24T08:54:07.012Z,65504
2018-07-24T08:55:07.806Z,79360
2018-07-24T08:56:06.975Z,57696
2018-07-24T08:57:06.685Z,18848
2018-07-24T08:58:06.707Z,7380
2018-07-24T08:59:06.964Z,7140
2018-07-24T09:00:06.727Z,7200
2018-07-24T09:01:06.997Z,7180
2018-07-24T09:04:06.801Z,7344
2018-07-24T09:05:06.804Z,7296
2018-07-24T09:06:08.344Z,7268
2018-07-24T09:07:06.820Z,7372
2018-07-24T09:08:06.574Z,7488
2018-07-24T09:09:08.109Z,7536
2018-07-24T09:10:06.618Z,7640
2018-07-24T09:11:06.856Z,7600
2018-07-24T09:12:06.612Z,7664
2018-07-24T09:13:07.159Z,7744
2018-07-24T09:14:06.635Z,7768
2018-07-24T09:15:07.168Z,7740
2018-07-24T09:16:06.914Z,7604
2018-07-24T09:17:06.917Z,7828
2018-07-24T09:18:06.936Z,7896
2018-07-24T09:19:06.937Z,7720
2018-07-24T09:20:06.951Z,7588
2018-07-24T09:21:07.237Z,7704
2018-07-24T09:22:06.973Z,7820
2018-07-24T09:23:07.251Z,7828
2018-07-24T09:24:07.234Z,7692
2018-07-24T09:25:06.997Z,7544
2018-07-24T09:26:06.736Z,7428
2018-07-24T09:27:06.844Z,7316
2018-07-24T09:28:07.011Z,7236
2018-07-24T09:29:07.668Z,7268
2018-07-24T09:30:07.278Z,7420
2018-07-24T09:31:07.285Z,7508
2018-07-24T09:32:07.485Z,7600
2018-07-24T09:33:06.800Z,7836
2018-07-24T09:34:07.299Z,8360
2018-07-24T09:35:07.323Z,8736
2018-07-24T09:36:07.084Z,9072
2018-07-24T09:37:06.814Z,9132
2018-07-24T09:38:06.831Z,8828
2018-07-24T09:39:07.323Z,9140
2018-07-24T09:40:07.090Z,8480
2018-07-24T09:41:07.338Z,7896
2018-07-24T09:42:07.349Z,7352
2018-07-24T09:43:06.844Z,7216
2018-07-24T09:44:07.362Z,7556
2018-07-24T09:45:06.858Z,7700
2018-07-24T09:46:06.871Z,7404
2018-07-24T09:47:07.384Z,6872
2018-07-24T09:48:07.418Z,6760
2018-07-24T09:49:07.407Z,7204
2018-07-24T09:50:07.167Z,7536
2018-07-24T09:51:07.143Z,8052
2018-07-24T09:52:07.157Z,8056
2018-07-24T09:53:07.416Z,7828
2018-07-24T09:54:07.173Z,8004
2018-07-24T09:55:07.174Z,8080
2018-07-24T09:56:07.197Z,8044
2018-07-24T09:57:07.445Z,8100
2018-07-24T09:58:07.189Z,7576
2018-07-24T09:59:07.442Z,7700
2018-07-24T10:00:07.197Z,7608
2018-07-24T10:01:07.452Z,7804
2018-07-24T10:02:07.459Z,8216
2018-07-24T10:03:07.481Z,8584
2018-07-24T10:04:07.470Z,8708
2018-07-24T10:05:07.541Z,8668
2018-07-24T10:06:07.729Z,9980
2018-07-24T10:07:07.484Z,9796
2018-07-24T10:08:07.234Z,9880
2018-07-24T10:09:07.246Z,9912
2018-07-24T10:10:07.519Z,9936
2018-07-24T10:11:07.634Z,10072
2018-07-24T10:12:07.406Z,9884
2018-07-24T10:13:08.615Z,9880
2018-07-24T10:14:07.268Z,9544
2018-07-24T10:15:07.283Z,9252
2018-07-24T10:16:07.541Z,9108
2018-07-24T10:17:07.535Z,8988
2018-07-24T10:18:07.308Z,9108
2018-07-24T10:19:07.380Z,9376
2018-07-24T10:20:07.297Z,9476
2018-07-24T10:21:07.580Z,9544
2018-07-24T10:22:07.394Z,9776
2018-07-24T10:23:07.579Z,9732
2018-07-24T10:24:07.348Z,9648
2018-07-24T10:25:07.353Z,9448
2018-07-24T10:26:07.589Z,9172
2018-07-24T10:27:07.359Z,8916
2018-07-24T10:28:07.597Z,8832
2018-07-24T10:29:07.350Z,8792
2018-07-24T10:30:07.355Z,8708
2018-07-24T10:31:07.362Z,8636
2018-07-24T10:32:07.132Z,8664
2018-07-24T10:33:07.128Z,8736
2018-07-24T10:34:07.629Z,8832
2018-07-24T10:35:07.126Z,8948
2018-07-24T10:36:07.635Z,9284
2018-07-24T10:37:07.643Z,9940
2018-07-24T10:38:07.657Z,10312
2018-07-24T10:39:07.670Z,10296
2018-07-24T10:40:07.419Z,10600
2018-07-24T10:41:07.416Z,10556
2018-07-24T10:42:07.431Z,10264
2018-07-24T10:43:07.584Z,10332
2018-07-24T10:44:07.430Z,10664
2018-07-24T10:45:07.435Z,10948
2018-07-24T10:46:07.700Z,10896
2018-07-24T10:47:07.703Z,10132
2018-07-24T10:48:07.451Z,9908
2018-07-24T10:49:07.457Z,9960
2018-07-24T10:50:07.210Z,9740
2018-07-24T10:51:07.470Z,9300
2018-07-24T10:52:07.742Z,8556
2018-07-24T10:53:07.498Z,4892
2018-07-24T10:54:07.496Z,6100
2018-07-24T10:55:07.776Z,8420
2018-07-24T10:56:07.798Z,8440
2018-07-24T10:57:07.506Z,8300
2018-07-24T10:58:07.521Z,8248
2018-07-24T10:59:07.763Z,8280
2018-07-24T11:00:07.773Z,8268
2018-07-24T11:01:07.787Z,8216
2018-07-24T11:02:07.292Z,8216
2018-07-24T11:03:07.320Z,8284
2018-07-24T11:04:07.791Z,8420
2018-07-24T11:05:07.840Z,8596
2018-07-24T11:06:07.578Z,8724
2018-07-24T11:07:07.573Z,8780
2018-07-24T11:08:08.066Z,8856
2018-07-24T11:09:08.038Z,8800
2018-07-24T11:10:07.826Z,8696
2018-07-24T11:11:08.223Z,8792
2018-07-24T11:12:07.847Z,8932
2018-07-24T11:13:07.598Z,8900
2018-07-24T11:14:07.592Z,8844
2018-07-24T11:15:07.352Z,8868
2018-07-24T11:16:07.869Z,8780
2018-07-24T11:17:07.860Z,8792
2018-07-24T11:18:07.870Z,8644
2018-07-24T11:19:07.893Z,8532
2018-07-24T11:20:07.578Z,8436
2018-07-24T11:21:07.633Z,8380
2018-07-24T11:22:08.098Z,8304
2018-07-24T11:23:08.736Z,8276
2018-07-24T11:24:08.004Z,8240
2018-07-24T11:25:07.907Z,8112
2018-07-24T11:26:07.947Z,8140
2018-07-24T11:27:07.938Z,8296
2018-07-24T11:28:07.669Z,8316
2018-07-24T11:29:07.921Z,8264
2018-07-24T11:30:07.427Z,8264
2018-07-24T11:31:07.969Z,8212
2018-07-24T11:32:07.961Z,8100
2018-07-24T11:33:08.567Z,8000
2018-07-24T11:34:07.453Z,7896
2018-07-24T11:35:07.963Z,7832
2018-07-24T11:36:09.087Z,7732
2018-07-24T11:37:07.720Z,7560
2018-07-24T11:38:07.719Z,7360
2018-07-24T11:39:07.739Z,7232
2018-07-24T11:40:07.995Z,7168
2018-07-24T11:41:08.324Z,7108
2018-07-24T11:42:07.745Z,7116
2018-07-24T11:43:07.758Z,7228
2018-07-24T11:44:08.426Z,7584
2018-07-24T11:45:07.760Z,8164
2018-07-24T11:46:08.025Z,8768
2018-07-24T11:47:08.036Z,9068
2018-07-24T11:48:08.039Z,9120
2018-07-24T11:49:07.794Z,9168
2018-07-24T11:50:07.811Z,9284
2018-07-24T11:51:08.055Z,9460
2018-07-24T11:52:08.057Z,9356
2018-07-24T11:53:07.820Z,9208
2018-07-24T11:54:08.067Z,9060
2018-07-24T11:55:07.816Z,8772
2018-07-24T11:56:07.825Z,8512
2018-07-24T11:57:07.576Z,8396
2018-07-24T11:58:07.847Z,8332
2018-07-24T11:59:08.116Z,8468
2018-07-24T12:00:07.627Z,8600
2018-07-24T12:01:08.106Z,8676
2018-07-24T12:02:07.857Z,8600
2018-07-24T12:03:07.617Z,8604
2018-07-24T12:04:07.874Z,8784
2018-07-24T12:05:08.125Z,9220
2018-07-24T12:06:08.172Z,9528
2018-07-24T12:07:08.150Z,9344
2018-07-24T12:08:07.892Z,8904
2018-07-24T12:09:07.898Z,8512
2018-07-24T12:10:07.405Z,8168
2018-07-24T12:11:07.910Z,8036
2018-07-24T12:12:08.179Z,7896
2018-07-24T12:13:08.185Z,7864
2018-07-24T12:14:08.190Z,7912
2018-07-24T12:15:08.140Z,7840
2018-07-24T12:16:08.194Z,7648
2018-07-24T12:17:08.200Z,7532
2018-07-24T12:18:07.951Z,7416
2018-07-24T12:19:07.951Z,7092
2018-07-24T12:20:07.703Z,6956
2018-07-24T12:21:08.221Z,7052
2018-07-24T12:22:08.228Z,7144
2018-07-24T12:23:07.972Z,7128
2018-07-24T12:24:07.978Z,7068
2018-07-24T12:25:08.002Z,6952
2018-07-24T12:26:07.991Z,6820
2018-07-24T12:27:08.522Z,6652
2018-07-24T12:28:08.255Z,6588
2018-07-24T12:29:08.277Z,6668
2018-07-24T12:30:07.762Z,6840
2018-07-24T12:31:08.018Z,7136
2018-07-24T12:32:08.276Z,7424
2018-07-24T12:33:08.039Z,7604
2018-07-24T12:34:08.301Z,7904
2018-07-24T12:35:08.057Z,8392
2018-07-24T12:36:08.591Z,8884
2018-07-24T12:37:07.809Z,9204
2018-07-24T12:38:08.059Z,9304
2018-07-24T12:39:07.811Z,9300
2018-07-24T12:40:08.071Z,9152
2018-07-24T12:41:08.352Z,8844
2018-07-24T12:42:07.945Z,8436
2018-07-24T12:43:08.424Z,8316
2018-07-24T12:44:08.402Z,8584
2018-07-24T12:45:08.103Z,8572
2018-07-24T12:46:08.129Z,8284
2018-07-24T12:47:08.108Z,7828
2018-07-24T12:48:07.864Z,7100
2018-07-24T12:49:08.130Z,6580
2018-07-24T12:50:08.379Z,6208
2018-07-24T12:51:08.158Z,6108
2018-07-24T12:52:07.933Z,6116
2018-07-24T12:53:08.142Z,6132
2018-07-24T12:54:08.416Z,6148
2018-07-24T12:55:08.422Z,6280
2018-07-24T12:56:08.183Z,6464
2018-07-24T12:57:08.429Z,6552
2018-07-24T12:58:08.293Z,6568
2018-07-24T12:59:08.194Z,6628
2018-07-24T13:00:07.934Z,6784
2018-07-24T13:01:08.219Z,6912
2018-07-24T13:02:08.214Z,6940
2018-07-24T13:03:08.197Z,6956
2018-07-24T13:04:08.844Z,7032
2018-07-24T13:05:08.208Z,7076
2018-07-24T13:06:08.293Z,7044
2018-07-24T13:07:08.237Z,7028
2018-07-24T13:08:08.255Z,7088
2018-07-24T13:09:08.482Z,7168
2018-07-24T13:10:08.918Z,7236
2018-07-24T13:11:08.638Z,7256
2018-07-24T13:12:08.518Z,7380
2018-07-24T13:13:08.507Z,7612
2018-07-24T13:14:08.507Z,7880
2018-07-24T13:15:08.264Z,8316
2018-07-24T13:16:08.013Z,9076
2018-07-24T13:17:08.525Z,10112
2018-07-24T13:18:08.546Z,11040
2018-07-24T13:19:08.285Z,11432
2018-07-24T13:20:07.781Z,11712
2018-07-24T13:21:08.542Z,12052
2018-07-24T13:22:08.355Z,12448
2018-07-24T13:23:08.556Z,12652
2018-07-24T13:24:08.574Z,12388
2018-07-24T13:25:08.591Z,11784
2018-07-24T13:26:08.585Z,11364
2018-07-24T13:27:08.339Z,11040
2018-07-24T13:28:08.596Z,10344
2018-07-24T13:29:08.617Z,9264
2018-07-24T13:30:08.595Z,8136